Time;durP1;ratioP1;P1;durP2;ratioP2;P2;SDS_P1;SDS_P2;PMS_P1;PMS_P2;Temp;Humidity;BMP_temperature;BMP_pressure;BME280_temperature;BME280_humidity;BME280_pressure;Samples;Min_cycle;Max_cycle;Signal;HPM_P1;HPM_P2
2022/11/07 00:01:35;;;;;;;;;;;23.70;95.70;;;;;;5040595;28;19909;-68
2022/11/07 00:04:01;;;;;;;;;;;23.80;95.60;;;;;;5028815;28;19928;-67
2022/11/07 00:06:28;;;;;;;;;;;23.80;95.80;;;;;;5021949;28;20354;-69
2022/11/07 00:08:55;;;;;;;;;;;23.80;95.30;;;;;;5019986;28;19955;-68
2022/11/07 00:11:21;;;;;;;;;;;23.90;95.60;;;;;;5030201;28;20324;-66
2022/11/07 00:13:48;;;;;;;;;;;24.10;95.10;;;;;;5036961;28;19913;-67
2022/11/07 00:16:15;;;;;;;;;;;24.10;94.90;;;;;;5040073;28;19924;-68
2022/11/07 00:18:42;;;;;;;;;;;24.00;94.90;;;;;;5052990;28;19915;-67
2022/11/07 00:21:09;;;;;;;;;;;24.00;95.00;;;;;;5056335;28;19921;-67
2022/11/07 00:23:36;;;;;;;;;;;23.90;95.10;;;;;;5061126;28;19919;-67
2022/11/07 00:26:03;;;;;;;;;;;23.90;95.20;;;;;;5059363;28;20583;-68
2022/11/07 00:28:34;;;;;;;;;;;24.10;95.20;;;;;;5043034;28;19909;-67
2022/11/07 00:31:01;;;;;;;;;;;24.20;95.10;;;;;;5038928;28;20016;-67
2022/11/07 00:33:27;;;;;;;;;;;24.40;95.10;;;;;;5060674;28;19909;-68
2022/11/07 00:35:54;;;;;;;;;;;24.60;94.50;;;;;;5059876;28;19916;-66
2022/11/07 00:38:21;;;;;;;;;;;24.50;93.80;;;;;;5034783;28;19917;-67
2022/11/07 00:40:57;;;;;;;;;;;24.40;94.30;;;;;;5040618;28;19908;-68
2022/11/07 00:43:24;;;;;;;;;;;24.50;94.00;;;;;;5060945;28;19939;-67
2022/11/07 00:45:50;;;;;;;;;;;24.60;93.80;;;;;;5030832;28;19953;-68
2022/11/07 00:48:17;;;;;;;;;;;24.60;93.70;;;;;;5024363;28;19952;-68
2022/11/07 00:50:44;;;;;;;;;;;24.70;93.10;;;;;;5039572;28;19913;-68
2022/11/07 00:53:11;;;;;;;;;;;24.70;93.30;;;;;;5039988;28;19908;-68
2022/11/07 00:55:37;;;;;;;;;;;24.70;93.80;;;;;;5040163;28;20805;-67
2022/11/07 00:58:04;;;;;;;;;;;24.70;93.10;;;;;;5039258;28;19971;-68
2022/11/07 01:00:31;;;;;;;;;;;24.60;93.20;;;;;;5039419;28;21119;-67
2022/11/07 01:05:42;;;;;;;;;;;24.80;93.00;;;;;;5032315;28;19971;-67
2022/11/07 01:08:08;;;;;;;;;;;25.00;92.70;;;;;;5032854;28;19996;-68
2022/11/07 01:10:40;;;;;;;;;;;25.10;92.60;;;;;;5040284;28;19972;-68
2022/11/07 01:13:06;;;;;;;;;;;25.30;92.40;;;;;;5039629;28;20590;-68
2022/11/07 01:15:33;;;;;;;;;;;25.20;92.10;;;;;;5040536;28;19927;-68
2022/11/07 01:17:59;;;;;;;;;;;25.20;91.90;;;;;;5039284;28;19909;-66
2022/11/07 01:20:26;;;;;;;;;;;25.10;92.30;;;;;;5038798;28;19928;-69
2022/11/07 01:22:52;;;;;;;;;;;25.30;92.00;;;;;;5022195;28;19985;-68
2022/11/07 01:25:19;;;;;;;;;;;25.40;91.80;;;;;;5040215;28;19961;-69
2022/11/07 01:27:46;;;;;;;;;;;25.60;91.10;;;;;;5042286;28;19919;-68
2022/11/07 01:30:12;;;;;;;;;;;25.60;91.30;;;;;;5041983;28;19924;-68
2022/11/07 01:32:39;;;;;;;;;;;25.40;91.30;;;;;;5042642;28;19920;-68
2022/11/07 01:35:06;;;;;;;;;;;25.40;91.40;;;;;;5042189;28;19928;-68
2022/11/07 01:37:32;;;;;;;;;;;25.60;90.90;;;;;;5038093;28;19913;-67
2022/11/07 01:39:59;;;;;;;;;;;25.60;90.90;;;;;;5032382;28;19921;-67
2022/11/07 01:42:26;;;;;;;;;;;25.90;90.80;;;;;;5027116;28;19917;-68
2022/11/07 01:44:54;;;;;;;;;;;26.10;91.20;;;;;;5033046;28;20087;-67
2022/11/07 01:47:23;;;;;;;;;;;26.30;89.70;;;;;;5035963;28;20007;-67
2022/11/07 01:49:51;;;;;;;;;;;26.00;89.70;;;;;;5041541;28;19912;-67
2022/11/07 01:52:22;;;;;;;;;;;25.90;89.30;;;;;;5042144;28;19916;-69
2022/11/07 01:54:57;;;;;;;;;;;25.80;89.20;;;;;;5041849;28;19919;-68
2022/11/07 01:57:26;;;;;;;;;;;25.90;88.80;;;;;;5030905;28;20003;-68
2022/11/07 01:59:55;;;;;;;;;;;25.90;89.20;;;;;;5043517;28;20385;-67
2022/11/07 02:02:23;;;;;;;;;;;26.10;89.40;;;;;;5028444;28;19940;-67
2022/11/07 02:04:50;;;;;;;;;;;26.20;88.70;;;;;;5023145;28;19914;-68
2022/11/07 02:07:20;;;;;;;;;;;26.30;88.30;;;;;;5032323;28;20004;-67
2022/11/07 02:09:48;;;;;;;;;;;26.30;88.10;;;;;;5035182;28;19936;-67
2022/11/07 02:12:15;;;;;;;;;;;26.40;88.70;;;;;;5041756;28;19948;-68
2022/11/07 02:14:42;;;;;;;;;;;26.60;87.60;;;;;;5043470;28;19959;-67
2022/11/07 02:17:10;;;;;;;;;;;26.70;87.20;;;;;;5040266;28;19928;-67
2022/11/07 02:19:40;;;;;;;;;;;26.80;85.70;;;;;;5042682;28;19996;-68
2022/11/07 02:22:22;;;;;;;;;;;26.90;85.00;;;;;;5041180;28;19931;-68
2022/11/07 02:24:50;;;;;;;;;;;26.60;86.10;;;;;;5042535;28;19909;-67
2022/11/07 02:27:18;;;;;;;;;;;26.50;86.70;;;;;;5042065;28;19962;-66
2022/11/07 02:29:47;;;;;;;;;;;26.60;85.70;;;;;;5035070;28;19910;-68
2022/11/07 02:32:14;;;;;;;;;;;26.70;86.60;;;;;;5021526;28;19913;-67
2022/11/07 02:34:40;;;;;;;;;;;27.20;86.30;;;;;;5036895;28;20506;-67
2022/11/07 02:37:13;;;;;;;;;;;27.30;84.60;;;;;;5050909;28;19921;-68
2022/11/07 02:39:39;;;;;;;;;;;27.20;85.30;;;;;;5035416;28;20059;-67
2022/11/07 02:42:06;;;;;;;;;;;27.60;81.80;;;;;;5021908;28;19909;-68
2022/11/07 02:44:33;;;;;;;;;;;27.90;80.40;;;;;;5034577;28;19961;-68
2022/11/07 02:47:00;;;;;;;;;;;28.10;79.70;;;;;;5031604;28;19913;-69
2022/11/07 02:49:26;;;;;;;;;;;28.50;81.40;;;;;;5029968;28;20000;-68
2022/11/07 02:51:53;;;;;;;;;;;29.20;79.30;;;;;;5041769;28;20389;-69
2022/11/07 02:54:20;;;;;;;;;;;30.10;75.60;;;;;;5040940;28;19908;-68
2022/11/07 02:56:46;;;;;;;;;;;29.80;74.20;;;;;;5042148;28;19924;-68
2022/11/07 02:59:13;;;;;;;;;;;30.20;72.90;;;;;;5040878;28;20031;-68
2022/11/07 03:01:39;;;;;;;;;;;30.70;72.80;;;;;;5042459;28;19935;-70
2022/11/07 03:04:06;;;;;;;;;;;31.00;70.90;;;;;;5037147;28;19924;-69
2022/11/07 03:06:33;;;;;;;;;;;31.00;72.60;;;;;;5039109;28;20304;-68
2022/11/07 03:08:59;;;;;;;;;;;31.40;69.90;;;;;;5040024;28;20334;-69
2022/11/07 03:11:26;;;;;;;;;;;31.80;69.30;;;;;;5053632;28;19912;-68
2022/11/07 03:13:53;;;;;;;;;;;32.20;67.80;;;;;;5035536;28;19916;-69
2022/11/07 03:16:20;;;;;;;;;;;32.30;66.70;;;;;;5027760;28;19940;-68
2022/11/07 03:18:47;;;;;;;;;;;32.80;65.80;;;;;;5041774;28;19913;-68
2022/11/07 03:21:13;;;;;;;;;;;32.40;66.00;;;;;;5036759;28;19963;-70
2022/11/07 03:23:40;;;;;;;;;;;32.30;65.50;;;;;;5041609;28;19909;-69
2022/11/07 03:26:07;;;;;;;;;;;32.80;66.20;;;;;;5042134;28;20415;-68
2022/11/07 03:28:33;;;;;;;;;;;33.40;64.40;;;;;;5040487;28;20680;-68
2022/11/07 03:31:01;;;;;;;;;;;33.50;65.00;;;;;;5029082;28;19913;-68
2022/11/07 03:33:31;;;;;;;;;;;33.20;64.60;;;;;;5007486;28;19917;-69
2022/11/07 03:35:58;;;;;;;;;;;32.60;63.40;;;;;;5003435;28;19963;-67
2022/11/07 03:38:24;;;;;;;;;;;32.80;64.40;;;;;;5021148;28;19916;-66
2022/11/07 03:40:51;;;;;;;;;;;33.10;65.60;;;;;;5037169;28;20254;-67
2022/11/07 03:43:17;;;;;;;;;;;33.70;63.40;;;;;;5020651;28;19966;-68
2022/11/07 03:45:44;;;;;;;;;;;33.60;62.70;;;;;;5032563;28;19913;-69
2022/11/07 03:48:11;;;;;;;;;;;33.80;62.60;;;;;;5036813;28;19948;-69
2022/11/07 03:50:37;;;;;;;;;;;33.80;62.60;;;;;;5024489;28;19913;-67
2022/11/07 03:53:04;;;;;;;;;;;33.50;62.90;;;;;;5035663;28;19920;-69
2022/11/07 03:55:30;;;;;;;;;;;34.20;60.70;;;;;;5042383;28;20010;-68
2022/11/07 03:57:57;;;;;;;;;;;33.90;62.50;;;;;;5040764;28;19912;-68
2022/11/07 04:00:24;;;;;;;;;;;33.10;62.80;;;;;;5026595;28;19960;-66
2022/11/07 04:02:50;;;;;;;;;;;32.50;63.60;;;;;;5038019;28;19959;-68
2022/11/07 04:05:17;;;;;;;;;;;32.70;64.30;;;;;;5030176;28;19920;-69
2022/11/07 04:07:44;;;;;;;;;;;32.50;63.80;;;;;;5040400;28;19913;-68
2022/11/07 04:10:10;;;;;;;;;;;32.20;63.60;;;;;;5044822;28;19909;-68
2022/11/07 04:18:06;;;;;;;;;;;32.90;62.20;;;;;;5023963;28;20713;-68
2022/11/07 04:20:33;;;;;;;;;;;32.50;62.60;;;;;;5030652;28;20001;-68
2022/11/07 04:22:59;;;;;;;;;;;32.20;64.10;;;;;;5020217;28;20000;-69
2022/11/07 04:28:11;;;;;;;;;;;32.90;62.00;;;;;;5040906;28;19951;-69
2022/11/07 04:30:37;;;;;;;;;;;32.90;61.30;;;;;;5038991;28;19913;-69
2022/11/07 04:33:04;;;;;;;;;;;32.00;61.90;;;;;;5040825;28;20353;-69
2022/11/07 04:35:31;;;;;;;;;;;32.20;61.00;;;;;;5039361;28;19943;-69
2022/11/07 04:37:58;;;;;;;;;;;31.40;62.20;;;;;;5023238;28;20361;-70
2022/11/07 04:40:25;;;;;;;;;;;31.40;62.70;;;;;;5028700;28;19913;-70
2022/11/07 04:42:53;;;;;;;;;;;31.00;63.90;;;;;;5030402;28;20409;-69
2022/11/07 04:45:19;;;;;;;;;;;31.60;62.10;;;;;;5029618;28;20433;-68
2022/11/07 04:47:46;;;;;;;;;;;32.70;60.50;;;;;;5030485;28;19973;-68
2022/11/07 04:50:14;;;;;;;;;;;32.20;61.30;;;;;;5028237;28;19913;-69
2022/11/07 04:52:41;;;;;;;;;;;33.00;60.50;;;;;;5026678;28;20043;-69
2022/11/07 04:55:09;;;;;;;;;;;33.60;59.40;;;;;;5030995;28;20437;-67
2022/11/07 04:57:35;;;;;;;;;;;33.60;60.30;;;;;;5028159;28;19936;-68
2022/11/07 05:00:03;;;;;;;;;;;33.80;60.30;;;;;;5032314;28;19909;-68
2022/11/07 05:02:30;;;;;;;;;;;33.90;59.80;;;;;;5031910;28;19992;-68
2022/11/07 05:04:56;;;;;;;;;;;32.80;62.60;;;;;;5036988;28;20328;-68
2022/11/07 05:07:23;;;;;;;;;;;33.00;62.50;;;;;;5033791;28;20179;-70
2022/11/07 05:09:49;;;;;;;;;;;32.60;63.60;;;;;;5031257;28;19924;-70
2022/11/07 05:12:16;;;;;;;;;;;32.90;63.40;;;;;;5043873;28;19917;-69
2022/11/07 05:14:43;;;;;;;;;;;32.50;62.90;;;;;;5031910;28;20423;-71
2022/11/07 05:17:13;;;;;;;;;;;31.50;64.80;;;;;;5034950;28;19921;-70
2022/11/07 05:19:44;;;;;;;;;;;31.30;65.10;;;;;;5026903;28;20027;-69
2022/11/07 05:24:55;;;;;;;;;;;31.60;64.60;;;;;;5031300;28;19924;-68
2022/11/07 05:27:22;;;;;;;;;;;31.60;64.60;;;;;;5034739;28;19913;-70
2022/11/07 05:29:49;;;;;;;;;;;31.30;65.00;;;;;;5034607;28;20273;-70
2022/11/07 05:32:16;;;;;;;;;;;31.70;65.90;;;;;;5032137;28;19996;-70
2022/11/07 05:34:42;;;;;;;;;;;32.40;63.80;;;;;;5037604;28;19917;-70
2022/11/07 05:37:10;;;;;;;;;;;32.40;64.10;;;;;;5033685;28;20011;-69
2022/11/07 05:39:36;;;;;;;;;;;31.70;64.00;;;;;;5037096;28;19913;-70
2022/11/07 05:42:03;;;;;;;;;;;31.20;64.20;;;;;;5042082;28;19913;-70
2022/11/07 05:44:30;;;;;;;;;;;31.40;63.90;;;;;;5033557;28;19920;-71
2022/11/07 05:46:57;;;;;;;;;;;32.70;63.00;;;;;;5030405;28;19920;-68
2022/11/07 05:49:24;;;;;;;;;;;33.50;61.90;;;;;;5029980;28;20022;-68
2022/11/07 05:51:51;;;;;;;;;;;33.00;61.50;;;;;;5029518;28;19944;-71
2022/11/07 05:54:18;;;;;;;;;;;31.70;63.40;;;;;;5033057;28;19909;-68
2022/11/07 05:56:45;;;;;;;;;;;31.90;62.90;;;;;;5029484;28;19921;-68
2022/11/07 05:59:12;;;;;;;;;;;31.60;64.00;;;;;;5033226;28;19953;-68
2022/11/07 06:01:39;;;;;;;;;;;32.20;62.90;;;;;;5030731;28;19913;-68
2022/11/07 06:04:06;;;;;;;;;;;32.00;60.60;;;;;;5034081;28;19913;-69
2022/11/07 06:06:33;;;;;;;;;;;31.30;61.40;;;;;;5032177;28;20245;-70
2022/11/07 06:09:00;;;;;;;;;;;31.20;60.70;;;;;;5033729;28;19919;-70
2022/11/07 06:11:26;;;;;;;;;;;30.50;61.70;;;;;;5036829;28;19996;-69
2022/11/07 06:13:53;;;;;;;;;;;29.90;61.90;;;;;;5030557;28;20012;-68
2022/11/07 06:16:20;;;;;;;;;;;29.40;63.90;;;;;;5034079;28;19929;-68
2022/11/07 06:18:47;;;;;;;;;;;28.70;66.80;;;;;;5029106;28;20038;-69
2022/11/07 06:21:14;;;;;;;;;;;28.80;67.70;;;;;;5032771;28;19917;-68
2022/11/07 06:23:41;;;;;;;;;;;27.90;68.90;;;;;;5030795;28;20301;-70
2022/11/07 06:26:07;;;;;;;;;;;27.00;71.40;;;;;;5033387;28;19913;-69
2022/11/07 06:28:34;;;;;;;;;;;26.30;74.50;;;;;;5030883;28;19999;-68
2022/11/07 06:31:01;;;;;;;;;;;25.80;75.40;;;;;;5028918;28;19924;-69
2022/11/07 06:33:28;;;;;;;;;;;25.40;76.80;;;;;;5032797;28;20578;-68
2022/11/07 06:35:55;;;;;;;;;;;25.10;77.80;;;;;;5031601;28;19913;-68
2022/11/07 06:38:23;;;;;;;;;;;25.00;79.30;;;;;;5027377;28;20004;-68
2022/11/07 06:40:50;;;;;;;;;;;24.90;80.80;;;;;;5031291;28;19913;-73
2022/11/07 06:43:18;;;;;;;;;;;24.60;81.90;;;;;;5032201;28;19913;-73
2022/11/07 06:45:45;;;;;;;;;;;24.60;82.40;;;;;;5019175;28;20607;-71
2022/11/07 06:48:12;;;;;;;;;;;24.50;82.80;;;;;;5010641;28;19913;-73
2022/11/07 06:50:39;;;;;;;;;;;24.30;83.00;;;;;;5037280;28;19913;-70
2022/11/07 06:53:10;;;;;;;;;;;24.20;83.60;;;;;;5035206;28;20628;-71
2022/11/07 06:55:37;;;;;;;;;;;24.20;83.50;;;;;;5022844;28;19921;-72
2022/11/07 06:58:04;;;;;;;;;;;24.10;84.00;;;;;;5023780;28;20022;-72
2022/11/07 07:00:32;;;;;;;;;;;23.80;85.50;;;;;;5033775;28;19912;-71
2022/11/07 07:02:59;;;;;;;;;;;23.70;86.00;;;;;;5021759;28;20449;-72
2022/11/07 07:05:26;;;;;;;;;;;23.70;86.10;;;;;;5009440;28;19917;-72
2022/11/07 07:07:54;;;;;;;;;;;23.50;86.40;;;;;;5035512;28;19912;-69
2022/11/07 07:10:20;;;;;;;;;;;23.60;87.10;;;;;;5024842;28;19913;-72
2022/11/07 07:12:47;;;;;;;;;;;23.60;86.40;;;;;;5026313;28;19913;-74
2022/11/07 07:15:14;;;;;;;;;;;23.50;87.00;;;;;;5021816;28;19928;-73
2022/11/07 07:17:40;;;;;;;;;;;23.70;86.70;;;;;;5021670;28;20316;-74
2022/11/07 07:20:07;;;;;;;;;;;23.70;86.80;;;;;;5018692;28;20502;-75
2022/11/07 07:22:34;;;;;;;;;;;23.50;86.50;;;;;;5041012;28;20391;-74
2022/11/07 07:25:01;;;;;;;;;;;23.30;86.60;;;;;;5039403;28;19909;-72
2022/11/07 07:27:27;;;;;;;;;;;23.30;87.10;;;;;;5039112;28;19933;-73
2022/11/07 07:29:54;;;;;;;;;;;23.00;88.20;;;;;;5033652;28;19926;-74
2022/11/07 07:32:23;;;;;;;;;;;23.00;89.50;;;;;;5036672;28;20374;-73
2022/11/07 07:34:51;;;;;;;;;;;23.00;87.70;;;;;;5032250;28;19909;-73
2022/11/07 07:37:17;;;;;;;;;;;22.90;88.20;;;;;;5031373;28;20387;-71
2022/11/07 07:39:44;;;;;;;;;;;22.80;88.90;;;;;;5031282;28;19916;-70
2022/11/07 07:42:11;;;;;;;;;;;22.80;88.80;;;;;;5028183;28;19910;-73
2022/11/07 07:44:37;;;;;;;;;;;22.60;89.80;;;;;;5034440;28;19912;-72
2022/11/07 07:47:04;;;;;;;;;;;22.50;90.20;;;;;;5040727;28;19913;-74
2022/11/07 07:49:30;;;;;;;;;;;22.40;90.40;;;;;;5041084;28;19913;-73
2022/11/07 07:51:57;;;;;;;;;;;22.40;90.40;;;;;;5033594;28;20012;-75
2022/11/07 07:54:24;;;;;;;;;;;22.30;90.60;;;;;;5022103;28;19939;-74
2022/11/07 07:56:50;;;;;;;;;;;22.00;91.20;;;;;;5021951;28;19923;-71
2022/11/07 07:59:17;;;;;;;;;;;22.00;91.20;;;;;;5028174;28;20315;-67
2022/11/07 08:01:44;;;;;;;;;;;21.90;91.40;;;;;;5041131;28;19912;-67
2022/11/07 08:04:10;;;;;;;;;;;21.80;91.60;;;;;;5030855;28;19920;-67
2022/11/07 08:06:37;;;;;;;;;;;21.80;91.70;;;;;;5021192;28;19913;-67
2022/11/07 08:09:03;;;;;;;;;;;21.90;91.80;;;;;;5020184;28;20289;-66
2022/11/07 08:11:30;;;;;;;;;;;21.90;91.90;;;;;;5021408;28;19913;-67
2022/11/07 08:13:57;;;;;;;;;;;21.70;92.00;;;;;;5021351;28;19943;-67
2022/11/07 08:16:23;;;;;;;;;;;21.50;92.50;;;;;;5020746;28;19956;-66
2022/11/07 08:18:50;;;;;;;;;;;21.30;92.80;;;;;;5009580;28;20418;-68
2022/11/07 08:21:16;;;;;;;;;;;21.20;93.20;;;;;;5039376;28;19951;-67
2022/11/07 08:23:43;;;;;;;;;;;21.20;93.40;;;;;;5029129;28;20400;-68
2022/11/07 08:26:10;;;;;;;;;;;21.20;93.70;;;;;;5031658;28;19919;-67
2022/11/07 08:28:36;;;;;;;;;;;21.10;93.70;;;;;;5031001;28;20277;-65
2022/11/07 08:31:10;;;;;;;;;;;21.20;94.00;;;;;;5028025;28;19919;-69
2022/11/07 08:33:38;;;;;;;;;;;21.20;94.00;;;;;;5040327;28;20163;-67
2022/11/07 08:36:05;;;;;;;;;;;21.20;94.10;;;;;;5026970;28;19922;-68
2022/11/07 08:38:32;;;;;;;;;;;21.10;94.30;;;;;;5036215;28;19913;-68
2022/11/07 08:40:59;;;;;;;;;;;21.00;94.40;;;;;;5040144;28;19912;-68
2022/11/07 08:43:26;;;;;;;;;;;20.90;94.80;;;;;;5037418;28;20767;-67
2022/11/07 08:45:54;;;;;;;;;;;21.00;95.00;;;;;;5043595;28;19917;-68
2022/11/07 08:48:20;;;;;;;;;;;20.90;94.80;;;;;;5030953;28;19935;-68
2022/11/07 08:50:57;;;;;;;;;;;20.90;94.90;;;;;;5025435;28;20012;-68
2022/11/07 08:53:24;;;;;;;;;;;21.00;95.10;;;;;;5062681;28;19917;-67
2022/11/07 08:55:51;;;;;;;;;;;21.00;95.10;;;;;;5063469;28;19920;-67
2022/11/07 08:58:18;;;;;;;;;;;21.00;94.90;;;;;;5049992;28;19999;-67
2022/11/07 09:00:45;;;;;;;;;;;20.90;95.00;;;;;;5024745;28;19936;-67
2022/11/07 09:03:12;;;;;;;;;;;20.90;95.30;;;;;;5040938;28;20072;-67
2022/11/07 09:05:39;;;;;;;;;;;20.90;94.80;;;;;;5039801;28;19908;-68
2022/11/07 09:08:06;;;;;;;;;;;20.70;95.10;;;;;;5043813;28;19943;-66
2022/11/07 09:10:33;;;;;;;;;;;20.70;95.40;;;;;;5043382;28;19909;-70
2022/11/07 09:12:59;;;;;;;;;;;20.70;95.50;;;;;;5043556;28;19909;-67
2022/11/07 09:15:26;;;;;;;;;;;20.70;95.40;;;;;;5042113;28;20027;-66
2022/11/07 09:17:53;;;;;;;;;;;20.60;95.60;;;;;;5035702;28;20358;-66
2022/11/07 09:20:20;;;;;;;;;;;20.60;95.90;;;;;;5024475;28;19920;-68
2022/11/07 09:22:47;;;;;;;;;;;20.70;96.10;;;;;;5042449;28;19944;-66
2022/11/07 09:25:13;;;;;;;;;;;20.70;96.20;;;;;;5022890;28;19952;-67
2022/11/07 09:27:40;;;;;;;;;;;20.60;96.00;;;;;;5027942;28;20632;-67
2022/11/07 09:30:07;;;;;;;;;;;20.50;96.00;;;;;;5031307;28;19965;-68
2022/11/07 09:32:34;;;;;;;;;;;20.50;96.00;;;;;;5036715;28;20301;-68
2022/11/07 09:35:00;;;;;;;;;;;20.50;96.00;;;;;;5042287;28;19932;-67
2022/11/07 09:37:27;;;;;;;;;;;20.50;95.90;;;;;;5039908;28;20285;-68
2022/11/07 09:39:53;;;;;;;;;;;20.50;95.70;;;;;;5042169;28;20396;-69
2022/11/07 09:42:29;;;;;;;;;;;20.50;95.70;;;;;;5024461;28;20230;-67
2022/11/07 09:44:57;;;;;;;;;;;20.40;95.80;;;;;;5042973;28;19909;-68
2022/11/07 09:47:27;;;;;;;;;;;20.40;96.00;;;;;;5039231;28;20005;-69
2022/11/07 09:49:58;;;;;;;;;;;20.40;95.90;;;;;;5039681;28;19913;-68
2022/11/07 09:52:37;;;;;;;;;;;20.30;96.00;;;;;;5042744;28;19999;-68
2022/11/07 09:55:13;;;;;;;;;;;20.20;96.00;;;;;;5040316;28;19940;-67
2022/11/07 09:57:39;;;;;;;;;;;20.10;96.00;;;;;;5033728;28;19993;-66
2022/11/07 10:00:13;;;;;;;;;;;20.10;96.20;;;;;;5032140;28;19944;-67
2022/11/07 10:02:43;;;;;;;;;;;20.00;96.40;;;;;;5033239;28;20404;-67
2022/11/07 10:05:13;;;;;;;;;;;20.00;96.30;;;;;;5032269;28;19909;-66
2022/11/07 10:07:57;;;;;;;;;;;20.00;96.20;;;;;;5034106;28;20366;-65
2022/11/07 10:10:33;;;;;;;;;;;20.00;96.40;;;;;;5029900;28;19917;-66
2022/11/07 10:13:05;;;;;;;;;;;20.00;96.50;;;;;;5036492;28;19966;-64
2022/11/07 10:15:40;;;;;;;;;;;20.10;96.50;;;;;;5034564;28;19924;-65
2022/11/07 10:18:25;;;;;;;;;;;20.00;96.50;;;;;;5032447;28;19912;-64
2022/11/07 10:21:00;;;;;;;;;;;20.00;96.70;;;;;;5030185;28;19975;-66
2022/11/07 10:23:26;;;;;;;;;;;20.00;96.60;;;;;;5033044;28;19917;-66
2022/11/07 10:25:53;;;;;;;;;;;20.00;96.90;;;;;;5030860;28;19909;-67
2022/11/07 10:28:20;;;;;;;;;;;20.00;96.70;;;;;;5033251;28;19924;-67
2022/11/07 10:30:49;;;;;;;;;;;20.00;96.70;;;;;;5031389;28;19909;-66
2022/11/07 10:33:16;;;;;;;;;;;20.00;96.60;;;;;;5046424;28;19913;-66
2022/11/07 10:35:45;;;;;;;;;;;20.00;96.50;;;;;;5041706;28;20813;-66
2022/11/07 10:38:17;;;;;;;;;;;20.10;96.40;;;;;;5041805;28;19912;-66
2022/11/07 10:40:45;;;;;;;;;;;20.10;96.40;;;;;;5024028;28;19917;-65
2022/11/07 10:43:15;;;;;;;;;;;20.10;96.60;;;;;;5029913;28;20512;-66
2022/11/07 10:45:42;;;;;;;;;;;20.00;96.40;;;;;;5032195;28;20244;-66
2022/11/07 10:48:12;;;;;;;;;;;20.00;96.60;;;;;;5030594;28;19919;-67
2022/11/07 10:50:38;;;;;;;;;;;20.10;96.50;;;;;;5032013;28;19992;-67
2022/11/07 10:53:08;;;;;;;;;;;20.10;96.20;;;;;;5030890;28;20008;-67
2022/11/07 10:55:45;;;;;;;;;;;20.00;96.40;;;;;;5031474;28;20067;-66
2022/11/07 10:58:28;;;;;;;;;;;20.00;96.40;;;;;;5031926;28;19912;-66
2022/11/07 11:00:57;;;;;;;;;;;19.90;96.50;;;;;;5031860;28;19966;-66
2022/11/07 11:03:26;;;;;;;;;;;20.00;96.50;;;;;;5031217;28;19979;-67
2022/11/07 11:05:53;;;;;;;;;;;19.90;96.50;;;;;;5031522;28;19913;-66
2022/11/07 11:08:23;;;;;;;;;;;19.90;96.60;;;;;;5032364;28;19933;-66
2022/11/07 11:10:50;;;;;;;;;;;19.90;96.70;;;;;;5012633;28;20385;-66
2022/11/07 11:13:33;;;;;;;;;;;19.80;96.50;;;;;;5030293;28;20013;-67
2022/11/07 11:16:09;;;;;;;;;;;19.80;96.40;;;;;;5031664;28;20008;-66
2022/11/07 11:18:35;;;;;;;;;;;19.80;96.60;;;;;;5030212;28;19913;-65
2022/11/07 11:21:04;;;;;;;;;;;19.80;96.60;;;;;;5029536;28;19921;-67
2022/11/07 11:23:42;;;;;;;;;;;19.80;96.60;;;;;;5030135;28;19909;-67
2022/11/07 11:26:16;;;;;;;;;;;19.70;96.70;;;;;;5030793;28;19920;-67
2022/11/07 11:28:49;;;;;;;;;;;19.80;96.90;;;;;;5030543;28;19913;-69
2022/11/07 11:31:23;;;;;;;;;;;19.60;97.00;;;;;;5030880;28;19913;-67
2022/11/07 11:34:05;;;;;;;;;;;19.60;97.20;;;;;;5029920;28;19962;-67
2022/11/07 11:36:40;;;;;;;;;;;19.70;97.30;;;;;;5013494;28;19928;-67
2022/11/07 11:39:15;;;;;;;;;;;19.70;97.30;;;;;;5028095;28;19909;-67
2022/11/07 11:41:51;;;;;;;;;;;19.70;97.50;;;;;;5030417;28;19975;-66
2022/11/07 11:44:20;;;;;;;;;;;19.70;97.30;;;;;;5029431;28;19908;-66
2022/11/07 11:47:12;;;;;;;;;;;19.70;97.00;;;;;;5032369;28;20011;-67
2022/11/07 11:49:44;;;;;;;;;;;19.70;96.90;;;;;;5028095;28;19915;-67
2022/11/07 11:52:15;;;;;;;;;;;19.80;97.00;;;;;;5029207;28;19991;-66
2022/11/07 11:54:45;;;;;;;;;;;19.80;97.20;;;;;;5030846;28;19917;-65
2022/11/07 11:57:32;;;;;;;;;;;19.80;97.30;;;;;;5029556;28;19920;-67
2022/11/07 12:00:05;;;;;;;;;;;19.90;97.40;;;;;;5029170;28;19940;-65
2022/11/07 12:02:36;;;;;;;;;;;19.90;97.40;;;;;;5031518;28;19920;-66
2022/11/07 12:05:21;;;;;;;;;;;19.90;97.90;;;;;;5030686;28;19909;-66
2022/11/07 12:07:53;;;;;;;;;;;19.80;98.20;;;;;;5029579;28;19913;-66
2022/11/07 12:10:26;;;;;;;;;;;19.80;98.20;;;;;;5028259;28;20302;-65
2022/11/07 12:12:52;;;;;;;;;;;19.90;98.70;;;;;;5030767;28;19917;-65
2022/11/07 12:15:22;;;;;;;;;;;20.00;98.40;;;;;;5029261;28;19952;-65
2022/11/07 12:17:55;;;;;;;;;;;20.10;98.60;;;;;;5030577;28;20441;-66
2022/11/07 12:20:34;;;;;;;;;;;20.00;98.70;;;;;;5028638;28;19917;-66
2022/11/07 12:23:07;;;;;;;;;;;20.10;98.90;;;;;;5029202;28;20349;-66
2022/11/07 12:25:43;;;;;;;;;;;20.00;99.00;;;;;;5031406;28;19916;-67
2022/11/07 12:28:29;;;;;;;;;;;20.00;99.10;;;;;;5030589;28;20746;-67
2022/11/07 12:31:20;;;;;;;;;;;20.00;99.30;;;;;;5035932;28;20365;-67
2022/11/07 12:33:46;;;;;;;;;;;20.10;99.20;;;;;;5041099;28;20424;-66
2022/11/07 12:36:21;;;;;;;;;;;20.10;98.80;;;;;;5039191;28;19939;-66
2022/11/07 12:38:47;;;;;;;;;;;20.00;98.70;;;;;;5041437;28;19913;-65
2022/11/07 12:41:16;;;;;;;;;;;20.00;98.60;;;;;;5038773;28;19913;-65
2022/11/07 12:43:45;;;;;;;;;;;19.90;98.90;;;;;;5040833;28;20380;-66
2022/11/07 12:46:30;;;;;;;;;;;19.90;99.00;;;;;;5031985;28;20426;-67
2022/11/07 12:49:23;;;;;;;;;;;19.90;99.40;;;;;;5021269;28;19922;-65
2022/11/07 12:51:57;;;;;;;;;;;19.80;99.90;;;;;;5005641;28;19920;-66
2022/11/07 12:54:37;;;;;;;;;;;19.70;99.90;;;;;;5019647;28;19913;-67
2022/11/07 12:57:06;;;;;;;;;;;19.70;99.90;;;;;;5019957;28;19917;-67
2022/11/07 12:59:33;;;;;;;;;;;19.60;99.90;;;;;;5001297;28;19913;-66
2022/11/07 13:02:17;;;;;;;;;;;19.60;99.90;;;;;;5020395;28;20400;-67
2022/11/07 13:04:52;;;;;;;;;;;19.40;99.90;;;;;;5020560;28;19917;-66
2022/11/07 13:07:18;;;;;;;;;;;19.20;99.90;;;;;;5019218;28;20426;-68
2022/11/07 13:09:51;;;;;;;;;;;19.10;99.90;;;;;;5020909;28;19921;-67
2022/11/07 13:12:20;;;;;;;;;;;18.90;99.90;;;;;;5019358;28;19977;-66
2022/11/07 13:14:47;;;;;;;;;;;18.70;99.90;;;;;;5021280;28;20018;-67
2022/11/07 13:17:16;;;;;;;;;;;18.50;99.90;;;;;;5034127;28;19916;-67
2022/11/07 13:19:44;;;;;;;;;;;18.30;99.90;;;;;;5040545;28;19952;-67
2022/11/07 13:22:17;;;;;;;;;;;18.40;99.90;;;;;;5041376;28;19921;-66
2022/11/07 13:24:51;;;;;;;;;;;18.30;99.90;;;;;;5044156;28;19909;-68
2022/11/07 13:27:22;;;;;;;;;;;18.50;99.90;;;;;;5042632;28;19984;-67
2022/11/07 13:29:49;;;;;;;;;;;18.30;99.90;;;;;;5045060;28;20434;-66
2022/11/07 13:32:16;;;;;;;;;;;18.20;99.90;;;;;;5043609;28;19909;-67
2022/11/07 13:34:42;;;;;;;;;;;18.00;99.90;;;;;;5044075;28;19909;-66
2022/11/07 13:37:13;;;;;;;;;;;18.10;99.90;;;;;;5043431;28;19963;-66
2022/11/07 13:39:40;;;;;;;;;;;18.10;99.90;;;;;;5043051;28;20310;-68
2022/11/07 13:42:08;;;;;;;;;;;18.10;99.90;;;;;;5044064;28;19939;-66
2022/11/07 13:44:36;;;;;;;;;;;18.10;99.90;;;;;;5043023;28;19909;-66
2022/11/07 13:47:06;;;;;;;;;;;18.20;99.90;;;;;;5028342;28;19919;-66
2022/11/07 13:49:41;;;;;;;;;;;18.30;99.90;;;;;;5023498;28;19920;-66
2022/11/07 13:52:28;;;;;;;;;;;18.40;99.90;;;;;;5024239;28;19917;-66
2022/11/07 13:54:59;;;;;;;;;;;18.40;99.90;;;;;;5013738;28;20859;-66
2022/11/07 13:57:30;;;;;;;;;;;18.40;99.90;;;;;;5022344;28;19925;-66
2022/11/07 14:00:04;;;;;;;;;;;18.40;99.90;;;;;;5024322;28;20340;-66
2022/11/07 14:02:32;;;;;;;;;;;18.40;99.90;;;;;;5021966;28;19948;-67
2022/11/07 14:05:04;;;;;;;;;;;18.40;99.90;;;;;;5023649;28;19960;-66
2022/11/07 14:07:35;;;;;;;;;;;18.40;99.90;;;;;;5021452;28;19910;-66
2022/11/07 14:10:04;;;;;;;;;;;18.30;99.90;;;;;;5023739;28;19913;-66
2022/11/07 14:12:31;;;;;;;;;;;18.30;99.90;;;;;;5021623;28;19909;-66
2022/11/07 14:14:58;;;;;;;;;;;18.50;99.90;;;;;;5024034;28;19939;-66
2022/11/07 14:17:31;;;;;;;;;;;18.40;99.90;;;;;;5025334;28;20301;-67
2022/11/07 14:20:10;;;;;;;;;;;18.40;99.90;;;;;;5033845;28;20365;-66
2022/11/07 14:22:37;;;;;;;;;;;18.40;99.90;;;;;;5031526;28;19921;-65
2022/11/07 14:25:18;;;;;;;;;;;18.40;99.90;;;;;;5032860;28;19939;-66
2022/11/07 14:27:47;;;;;;;;;;;18.50;99.90;;;;;;5031399;28;20419;-67
2022/11/07 14:30:18;;;;;;;;;;;18.50;99.90;;;;;;5032547;28;19913;-67
2022/11/07 14:32:52;;;;;;;;;;;18.40;99.90;;;;;;5030565;28;20210;-65
2022/11/07 14:35:24;;;;;;;;;;;18.40;99.90;;;;;;5032321;28;19924;-67
2022/11/07 14:37:51;;;;;;;;;;;18.40;99.90;;;;;;5032764;28;19920;-67
2022/11/07 14:40:18;;;;;;;;;;;18.40;99.90;;;;;;5032223;28;19963;-67